sensor_id;sensor_type;location;lat;lon;timestamp;temperature;humidity
6536;DHT22;34330;52.08032700;5.40923460;2022-11-20T00:01:35;1.40;73.40
6536;DHT22;34330;52.08032700;5.40923460;2022-11-20T00:04:03;1.40;73.50
6536;DHT22;34330;52.08032700;5.40923460;2022-11-20T00:06:32;1.50;73.60
6536;DHT22;34330;52.08032700;5.40923460;2022-11-20T00:09:00;1.40;73.60
6536;DHT22;34330;52.08032700;5.40923460;2022-11-20T00:11:34;1.40;73.70
6536;DHT22;34330;52.08032700;5.40923460;2022-11-20T00:14:02;1.50;73.90
6536;DHT22;34330;52.08032700;5.40923460;2022-11-20T00:16:32;1.40;73.80
6536;DHT22;34330;52.08032700;5.40923460;2022-11-20T00:19:06;1.30;73.50
6536;DHT22;34330;52.08032700;5.40923460;2022-11-20T00:21:35;1.30;73.60
6536;DHT22;34330;52.08032700;5.40923460;2022-11-20T00:24:05;1.20;73.50
6536;DHT22;34330;52.08032700;5.40923460;2022-11-20T00:26:36;1.40;73.80
6536;DHT22;34330;52.08032700;5.40923460;2022-11-20T00:31:34;1.20;73.60
6536;DHT22;34330;52.08032700;5.40923460;2022-11-20T00:34:02;1.20;73.50
6536;DHT22;34330;52.08032700;5.40923460;2022-11-20T00:36:38;1.20;73.50
6536;DHT22;34330;52.08032700;5.40923460;2022-11-20T00:39:08;1.20;73.40
6536;DHT22;34330;52.08032700;5.40923460;2022-11-20T00:41:35;1.20;73.40
6536;DHT22;34330;52.08032700;5.40923460;2022-11-20T00:44:03;1.20;73.50
6536;DHT22;34330;52.08032700;5.40923460;2022-11-20T00:46:31;1.20;73.60
6536;DHT22;34330;52.08032700;5.40923460;2022-11-20T00:51:27;1.10;73.40
6536;DHT22;34330;52.08032700;5.40923460;2022-11-20T00:53:57;1.10;73.40
6536;DHT22;34330;52.08032700;5.40923460;2022-11-20T00:56:26;1.10;73.40
6536;DHT22;34330;52.08032700;5.40923460;2022-11-20T00:58:54;1.00;73.40
6536;DHT22;34330;52.08032700;5.40923460;2022-11-20T01:01:24;1.10;73.50
6536;DHT22;34330;52.08032700;5.40923460;2022-11-20T01:03:55;1.00;73.60
6536;DHT22;34330;52.08032700;5.40923460;2022-11-20T01:06:25;1.00;73.60
6536;DHT22;34330;52.08032700;5.40923460;2022-11-20T01:08:55;1.00;73.80
6536;DHT22;34330;52.08032700;5.40923460;2022-11-20T01:11:27;1.00;73.80
6536;DHT22;34330;52.08032700;5.40923460;2022-11-20T01:13:56;1.00;73.90
6536;DHT22;34330;52.08032700;5.40923460;2022-11-20T01:16:27;1.00;73.90
6536;DHT22;34330;52.08032700;5.40923460;2022-11-20T01:18:57;1.00;74.00
6536;DHT22;34330;52.08032700;5.40923460;2022-11-20T01:21:27;1.00;73.90
6536;DHT22;34330;52.08032700;5.40923460;2022-11-20T01:23:56;1.00;73.90
6536;DHT22;34330;52.08032700;5.40923460;2022-11-20T01:26:28;1.00;73.90
6536;DHT22;34330;52.08032700;5.40923460;2022-11-20T01:28:56;0.90;73.70
6536;DHT22;34330;52.08032700;5.40923460;2022-11-20T01:31:27;0.90;73.60
6536;DHT22;34330;52.08032700;5.40923460;2022-11-20T01:33:57;0.90;73.70
6536;DHT22;34330;52.08032700;5.40923460;2022-11-20T01:36:27;1.10;73.90
6536;DHT22;34330;52.08032700;5.40923460;2022-11-20T01:38:57;0.80;73.50
6536;DHT22;34330;52.08032700;5.40923460;2022-11-20T01:41:29;4.00;76.50
6536;DHT22;34330;52.08032700;5.40923460;2022-11-20T01:44:17;0.90;73.50
6536;DHT22;34330;52.08032700;5.40923460;2022-11-20T01:46:52;0.90;73.40
6536;DHT22;34330;52.08032700;5.40923460;2022-11-20T01:49:41;0.80;73.30
6536;DHT22;34330;52.08032700;5.40923460;2022-11-20T01:52:13;0.80;73.20
6536;DHT22;34330;52.08032700;5.40923460;2022-11-20T01:54:54;0.80;73.30
6536;DHT22;34330;52.08032700;5.40923460;2022-11-20T01:57:28;0.70;73.20
6536;DHT22;34330;52.08032700;5.40923460;2022-11-20T02:00:03;0.80;73.30
6536;DHT22;34330;52.08032700;5.40923460;2022-11-20T02:02:32;0.70;73.30
6536;DHT22;34330;52.08032700;5.40923460;2022-11-20T02:05:08;0.60;73.20
6536;DHT22;34330;52.08032700;5.40923460;2022-11-20T02:07:38;0.80;73.50
6536;DHT22;34330;52.08032700;5.40923460;2022-11-20T02:10:07;0.70;73.40
6536;DHT22;34330;52.08032700;5.40923460;2022-11-20T02:12:36;1.10;73.80
6536;DHT22;34330;52.08032700;5.40923460;2022-11-20T02:15:21;0.70;73.60
6536;DHT22;34330;52.08032700;5.40923460;2022-11-20T02:17:55;0.60;73.50
6536;DHT22;34330;52.08032700;5.40923460;2022-11-20T02:20:24;0.70;73.60
6536;DHT22;34330;52.08032700;5.40923460;2022-11-20T02:22:57;0.60;73.60
6536;DHT22;34330;52.08032700;5.40923460;2022-11-20T02:25:31;0.60;73.60
6536;DHT22;34330;52.08032700;5.40923460;2022-11-20T02:28:00;0.60;73.60
6536;DHT22;34330;52.08032700;5.40923460;2022-11-20T02:30:28;0.50;73.50
6536;DHT22;34330;52.08032700;5.40923460;2022-11-20T02:32:57;0.60;73.60
6536;DHT22;34330;52.08032700;5.40923460;2022-11-20T02:35:42;0.60;73.50
6536;DHT22;34330;52.08032700;5.40923460;2022-11-20T02:38:10;0.50;73.50
6536;DHT22;34330;52.08032700;5.40923460;2022-11-20T02:40:43;0.50;73.40
6536;DHT22;34330;52.08032700;5.40923460;2022-11-20T02:43:11;0.50;73.50
6536;DHT22;34330;52.08032700;5.40923460;2022-11-20T02:45:39;0.60;73.70
6536;DHT22;34330;52.08032700;5.40923460;2022-11-20T02:48:07;0.50;73.50
6536;DHT22;34330;52.08032700;5.40923460;2022-11-20T02:50:37;0.50;73.50
6536;DHT22;34330;52.08032700;5.40923460;2022-11-20T02:53:08;0.40;73.40
6536;DHT22;34330;52.08032700;5.40923460;2022-11-20T02:55:44;0.50;73.60
6536;DHT22;34330;52.08032700;5.40923460;2022-11-20T02:58:11;0.60;73.80
6536;DHT22;34330;52.08032700;5.40923460;2022-11-20T03:00:45;0.50;73.60
6536;DHT22;34330;52.08032700;5.40923460;2022-11-20T03:03:16;0.50;73.50
6536;DHT22;34330;52.08032700;5.40923460;2022-11-20T03:05:46;0.50;73.30
6536;DHT22;34330;52.08032700;5.40923460;2022-11-20T03:08:16;0.40;73.20
6536;DHT22;34330;52.08032700;5.40923460;2022-11-20T03:10:45;0.40;73.20
6536;DHT22;34330;52.08032700;5.40923460;2022-11-20T03:13:13;0.40;73.10
6536;DHT22;34330;52.08032700;5.40923460;2022-11-20T03:15:41;0.40;72.90
6536;DHT22;34330;52.08032700;5.40923460;2022-11-20T03:18:08;0.40;73.00
6536;DHT22;34330;52.08032700;5.40923460;2022-11-20T03:20:40;0.30;73.00
6536;DHT22;34330;52.08032700;5.40923460;2022-11-20T03:25:36;0.30;73.10
6536;DHT22;34330;52.08032700;5.40923460;2022-11-20T03:28:07;0.20;73.00
6536;DHT22;34330;52.08032700;5.40923460;2022-11-20T03:33:03;0.10;73.00
6536;DHT22;34330;52.08032700;5.40923460;2022-11-20T03:35:34;0.20;73.20
6536;DHT22;34330;52.08032700;5.40923460;2022-11-20T03:38:05;0.20;73.30
6536;DHT22;34330;52.08032700;5.40923460;2022-11-20T03:40:34;0.20;73.40
6536;DHT22;34330;52.08032700;5.40923460;2022-11-20T03:45:37;0.20;73.50
6536;DHT22;34330;52.08032700;5.40923460;2022-11-20T03:50:38;0.20;73.40
6536;DHT22;34330;52.08032700;5.40923460;2022-11-20T03:53:06;0.10;73.10
6536;DHT22;34330;52.08032700;5.40923460;2022-11-20T03:55:35;0.20;73.20
6536;DHT22;34330;52.08032700;5.40923460;2022-11-20T04:00:34;0.10;73.00
6536;DHT22;34330;52.08032700;5.40923460;2022-11-20T04:03:03;0.10;73.20
6536;DHT22;34330;52.08032700;5.40923460;2022-11-20T04:05:32;0.00;73.20
6536;DHT22;34330;52.08032700;5.40923460;2022-11-20T04:08:00;0.10;73.30
6536;DHT22;34330;52.08032700;5.40923460;2022-11-20T04:10:28;0.10;73.30
6536;DHT22;34330;52.08032700;5.40923460;2022-11-20T04:12:56;0.10;73.20
6536;DHT22;34330;52.08032700;5.40923460;2022-11-20T04:15:24;0.10;73.40
6536;DHT22;34330;52.08032700;5.40923460;2022-11-20T04:17:52;0.00;73.30
6536;DHT22;34330;52.08032700;5.40923460;2022-11-20T04:20:21;-0.10;73.30
6536;DHT22;34330;52.08032700;5.40923460;2022-11-20T04:22:48;0.00;73.40
6536;DHT22;34330;52.08032700;5.40923460;2022-11-20T04:25:16;0.00;73.40
6536;DHT22;34330;52.08032700;5.40923460;2022-11-20T04:30:13;-0.10;73.40
6536;DHT22;34330;52.08032700;5.40923460;2022-11-20T04:32:41;0.00;73.50
6536;DHT22;34330;52.08032700;5.40923460;2022-11-20T04:35:11;-0.20;73.40
6536;DHT22;34330;52.08032700;5.40923460;2022-11-20T04:37:41;0.00;73.60
6536;DHT22;34330;52.08032700;5.40923460;2022-11-20T04:40:10;-0.10;73.50
6536;DHT22;34330;52.08032700;5.40923460;2022-11-20T04:42:38;-0.10;73.60
6536;DHT22;34330;52.08032700;5.40923460;2022-11-20T04:45:06;-0.10;73.50
6536;DHT22;34330;52.08032700;5.40923460;2022-11-20T04:47:35;0.00;73.70
6536;DHT22;34330;52.08032700;5.40923460;2022-11-20T04:50:03;-0.20;73.50
6536;DHT22;34330;52.08032700;5.40923460;2022-11-20T04:52:33;-0.20;73.60
6536;DHT22;34330;52.08032700;5.40923460;2022-11-20T04:55:03;-0.20;73.60
6536;DHT22;34330;52.08032700;5.40923460;2022-11-20T04:57:31;-0.20;73.50
6536;DHT22;34330;52.08032700;5.40923460;2022-11-20T05:02:13;-0.10;73.60
6536;DHT22;34330;52.08032700;5.40923460;2022-11-20T05:04:41;-0.10;73.50
6536;DHT22;34330;52.08032700;5.40923460;2022-11-20T05:07:09;-0.10;73.40
6536;DHT22;34330;52.08032700;5.40923460;2022-11-20T05:09:37;-0.10;73.20
6536;DHT22;34330;52.08032700;5.40923460;2022-11-20T05:12:07;-0.20;72.90
6536;DHT22;34330;52.08032700;5.40923460;2022-11-20T05:14:37;-0.20;72.80
6536;DHT22;34330;52.08032700;5.40923460;2022-11-20T05:17:09;-0.20;72.80
6536;DHT22;34330;52.08032700;5.40923460;2022-11-20T05:19:39;-0.20;72.90
6536;DHT22;34330;52.08032700;5.40923460;2022-11-20T05:22:07;-0.20;72.90
6536;DHT22;34330;52.08032700;5.40923460;2022-11-20T05:24:42;-0.30;72.70
6536;DHT22;34330;52.08032700;5.40923460;2022-11-20T05:29:41;-0.40;72.80
6536;DHT22;34330;52.08032700;5.40923460;2022-11-20T05:32:12;-0.40;72.90
6536;DHT22;34330;52.08032700;5.40923460;2022-11-20T05:34:44;-0.30;73.20
6536;DHT22;34330;52.08032700;5.40923460;2022-11-20T05:39:44;-0.40;73.40
6536;DHT22;34330;52.08032700;5.40923460;2022-11-20T05:44:59;-0.40;73.70
6536;DHT22;34330;52.08032700;5.40923460;2022-11-20T05:47:28;-0.40;73.60
6536;DHT22;34330;52.08032700;5.40923460;2022-11-20T05:50:01;-0.30;73.80
6536;DHT22;34330;52.08032700;5.40923460;2022-11-20T05:52:29;-0.40;73.60
6536;DHT22;34330;52.08032700;5.40923460;2022-11-20T05:54:59;-0.40;73.30
6536;DHT22;34330;52.08032700;5.40923460;2022-11-20T05:57:27;-0.50;73.40
6536;DHT22;34330;52.08032700;5.40923460;2022-11-20T06:04:56;-0.40;72.80
6536;DHT22;34330;52.08032700;5.40923460;2022-11-20T06:07:27;-0.50;72.60
6536;DHT22;34330;52.08032700;5.40923460;2022-11-20T06:09:59;-0.50;72.60
6536;DHT22;34330;52.08032700;5.40923460;2022-11-20T06:14:58;-0.60;72.60
6536;DHT22;34330;52.08032700;5.40923460;2022-11-20T06:17:35;-0.70;72.60
6536;DHT22;34330;52.08032700;5.40923460;2022-11-20T06:20:05;-0.70;72.60
6536;DHT22;34330;52.08032700;5.40923460;2022-11-20T06:22:36;-0.80;72.50
6536;DHT22;34330;52.08032700;5.40923460;2022-11-20T06:25:04;-0.60;72.70
6536;DHT22;34330;52.08032700;5.40923460;2022-11-20T06:30:04;-0.70;73.10
6536;DHT22;34330;52.08032700;5.40923460;2022-11-20T06:32:33;-0.70;73.20
6536;DHT22;34330;52.08032700;5.40923460;2022-11-20T06:35:07;-0.70;73.30
6536;DHT22;34330;52.08032700;5.40923460;2022-11-20T06:37:40;-0.80;73.20
6536;DHT22;34330;52.08032700;5.40923460;2022-11-20T06:40:09;-0.70;73.30
6536;DHT22;34330;52.08032700;5.40923460;2022-11-20T06:45:06;-0.80;73.40
6536;DHT22;34330;52.08032700;5.40923460;2022-11-20T06:50:02;-0.80;73.50
6536;DHT22;34330;52.08032700;5.40923460;2022-11-20T06:52:30;-0.70;73.70
6536;DHT22;34330;52.08032700;5.40923460;2022-11-20T06:54:59;-0.70;73.80
6536;DHT22;34330;52.08032700;5.40923460;2022-11-20T06:57:27;-0.70;73.90
6536;DHT22;34330;52.08032700;5.40923460;2022-11-20T06:59:57;-0.70;73.80
6536;DHT22;34330;52.08032700;5.40923460;2022-11-20T07:02:25;-0.70;73.80
6536;DHT22;34330;52.08032700;5.40923460;2022-11-20T07:07:26;-0.80;73.90
6536;DHT22;34330;52.08032700;5.40923460;2022-11-20T07:12:25;-0.70;74.00
6536;DHT22;34330;52.08032700;5.40923460;2022-11-20T07:14:55;-0.70;74.00
6536;DHT22;34330;52.08032700;5.40923460;2022-11-20T07:17:23;-0.70;74.00
6536;DHT22;34330;52.08032700;5.40923460;2022-11-20T07:19:53;-0.60;74.20
6536;DHT22;34330;52.08032700;5.40923460;2022-11-20T07:22:21;-0.60;74.20
6536;DHT22;34330;52.08032700;5.40923460;2022-11-20T07:24:55;-0.70;74.20
6536;DHT22;34330;52.08032700;5.40923460;2022-11-20T07:27:26;-0.60;74.40
6536;DHT22;34330;52.08032700;5.40923460;2022-11-20T07:29:54;-0.60;74.40
6536;DHT22;34330;52.08032700;5.40923460;2022-11-20T07:35:02;-0.60;74.30
6536;DHT22;34330;52.08032700;5.40923460;2022-11-20T07:37:33;-0.50;74.50
6536;DHT22;34330;52.08032700;5.40923460;2022-11-20T07:40:02;-0.60;74.50
6536;DHT22;34330;52.08032700;5.40923460;2022-11-20T07:42:31;-0.60;74.60
6536;DHT22;34330;52.08032700;5.40923460;2022-11-20T07:44:59;-0.60;74.80
6536;DHT22;34330;52.08032700;5.40923460;2022-11-20T07:47:28;-0.60;74.90
6536;DHT22;34330;52.08032700;5.40923460;2022-11-20T07:49:56;-0.50;75.10
6536;DHT22;34330;52.08032700;5.40923460;2022-11-20T07:52:26;-0.40;75.30
6536;DHT22;34330;52.08032700;5.40923460;2022-11-20T07:55:00;-0.40;75.40
6536;DHT22;34330;52.08032700;5.40923460;2022-11-20T07:59:57;-0.30;75.50
6536;DHT22;34330;52.08032700;5.40923460;2022-11-20T08:02:26;-0.30;75.60
6536;DHT22;34330;52.08032700;5.40923460;2022-11-20T08:04:54;-0.30;75.70
6536;DHT22;34330;52.08032700;5.40923460;2022-11-20T08:07:22;-0.30;75.80
6536;DHT22;34330;52.08032700;5.40923460;2022-11-20T08:09:50;-0.20;75.90
6536;DHT22;34330;52.08032700;5.40923460;2022-11-20T08:12:21;-0.20;75.90
6536;DHT22;34330;52.08032700;5.40923460;2022-11-20T08:15:09;-0.10;76.20
6536;DHT22;34330;52.08032700;5.40923460;2022-11-20T08:17:39;0.00;76.40
6536;DHT22;34330;52.08032700;5.40923460;2022-11-20T08:20:08;0.00;76.40
6536;DHT22;34330;52.08032700;5.40923460;2022-11-20T08:22:37;0.10;76.50
6536;DHT22;34330;52.08032700;5.40923460;2022-11-20T08:25:06;0.20;76.60
6536;DHT22;34330;52.08032700;5.40923460;2022-11-20T08:30:05;0.20;76.70
6536;DHT22;34330;52.08032700;5.40923460;2022-11-20T08:32:38;0.30;76.70
6536;DHT22;34330;52.08032700;5.40923460;2022-11-20T08:35:12;0.40;76.90
6536;DHT22;34330;52.08032700;5.40923460;2022-11-20T08:37:40;0.30;76.90
6536;DHT22;34330;52.08032700;5.40923460;2022-11-20T08:40:10;0.40;77.10
6536;DHT22;34330;52.08032700;5.40923460;2022-11-20T08:42:48;0.50;77.40
6536;DHT22;34330;52.08032700;5.40923460;2022-11-20T08:45:17;0.50;77.50
6536;DHT22;34330;52.08032700;5.40923460;2022-11-20T08:47:47;0.50;77.60
6536;DHT22;34330;52.08032700;5.40923460;2022-11-20T08:50:28;0.70;77.90
6536;DHT22;34330;52.08032700;5.40923460;2022-11-20T08:53:02;0.70;77.90
6536;DHT22;34330;52.08032700;5.40923460;2022-11-20T08:55:30;0.80;77.90
6536;DHT22;34330;52.08032700;5.40923460;2022-11-20T08:58:03;0.80;78.00
6536;DHT22;34330;52.08032700;5.40923460;2022-11-20T09:00:34;0.80;78.10
6536;DHT22;34330;52.08032700;5.40923460;2022-11-20T09:03:04;1.00;78.20
6536;DHT22;34330;52.08032700;5.40923460;2022-11-20T09:05:35;1.00;78.30
6536;DHT22;34330;52.08032700;5.40923460;2022-11-20T09:08:05;1.00;78.40
6536;DHT22;34330;52.08032700;5.40923460;2022-11-20T09:10:38;1.10;78.50
6536;DHT22;34330;52.08032700;5.40923460;2022-11-20T09:13:07;1.10;78.50
6536;DHT22;34330;52.08032700;5.40923460;2022-11-20T09:15:36;1.20;78.70
6536;DHT22;34330;52.08032700;5.40923460;2022-11-20T09:18:05;1.20;78.80
6536;DHT22;34330;52.08032700;5.40923460;2022-11-20T09:20:33;1.40;79.10
6536;DHT22;34330;52.08032700;5.40923460;2022-11-20T09:23:03;1.50;79.20
6536;DHT22;34330;52.08032700;5.40923460;2022-11-20T09:25:31;1.40;79.10
6536;DHT22;34330;52.08032700;5.40923460;2022-11-20T09:27:59;1.60;79.40
6536;DHT22;34330;52.08032700;5.40923460;2022-11-20T09:30:33;1.60;79.50
6536;DHT22;34330;52.08032700;5.40923460;2022-11-20T09:33:01;1.60;79.60
6536;DHT22;34330;52.08032700;5.40923460;2022-11-20T09:35:32;1.70;79.70
6536;DHT22;34330;52.08032700;5.40923460;2022-11-20T09:38:04;1.80;79.90
6536;DHT22;34330;52.08032700;5.40923460;2022-11-20T09:40:34;1.80;80.00
6536;DHT22;34330;52.08032700;5.40923460;2022-11-20T09:43:07;1.90;80.30
6536;DHT22;34330;52.08032700;5.40923460;2022-11-20T09:45:50;2.00;80.40
6536;DHT22;34330;52.08032700;5.40923460;2022-11-20T09:48:36;2.20;80.70
6536;DHT22;34330;52.08032700;5.40923460;2022-11-20T09:51:16;2.20;80.70
6536;DHT22;34330;52.08032700;5.40923460;2022-11-20T09:54:04;2.30;80.90
6536;DHT22;34330;52.08032700;5.40923460;2022-11-20T09:56:34;2.40;81.00
6536;DHT22;34330;52.08032700;5.40923460;2022-11-20T09:59:08;2.40;81.00
6536;DHT22;34330;52.08032700;5.40923460;2022-11-20T10:01:42;2.40;81.00
6536;DHT22;34330;52.08032700;5.40923460;2022-11-20T10:04:15;2.50;81.20
6536;DHT22;34330;52.08032700;5.40923460;2022-11-20T10:06:52;2.60;81.40
6536;DHT22;34330;52.08032700;5.40923460;2022-11-20T10:09:50;2.60;81.40
6536;DHT22;34330;52.08032700;5.40923460;2022-11-20T10:12:25;2.60;81.50
6536;DHT22;34330;52.08032700;5.40923460;2022-11-20T10:15:10;2.70;81.60
6536;DHT22;34330;52.08032700;5.40923460;2022-11-20T10:18:16;2.90;81.90
6536;DHT22;34330;52.08032700;5.40923460;2022-11-20T10:20:56;2.90;81.90
6536;DHT22;34330;52.08032700;5.40923460;2022-11-20T10:23:44;3.00;82.10
6536;DHT22;34330;52.08032700;5.40923460;2022-11-20T10:26:19;3.10;82.20
6536;DHT22;34330;52.08032700;5.40923460;2022-11-20T10:29:00;3.10;82.20
6536;DHT22;34330;52.08032700;5.40923460;2022-11-20T10:31:37;3.30;82.50
6536;DHT22;34330;52.08032700;5.40923460;2022-11-20T10:34:12;3.30;82.50
6536;DHT22;34330;52.08032700;5.40923460;2022-11-20T10:36:53;3.40;82.70
6536;DHT22;34330;52.08032700;5.40923460;2022-11-20T10:39:28;3.40;82.80
6536;DHT22;34330;52.08032700;5.40923460;2022-11-20T10:41:58;3.40;82.90
6536;DHT22;34330;52.08032700;5.40923460;2022-11-20T10:44:28;3.60;83.10
6536;DHT22;34330;52.08032700;5.40923460;2022-11-20T10:47:22;3.60;83.20
6536;DHT22;34330;52.08032700;5.40923460;2022-11-20T10:49:57;3.60;83.30
6536;DHT22;34330;52.08032700;5.40923460;2022-11-20T10:52:35;3.80;83.60
6536;DHT22;34330;52.08032700;5.40923460;2022-11-20T10:55:18;3.90;83.70
6536;DHT22;34330;52.08032700;5.40923460;2022-11-20T10:58:12;4.00;83.80
6536;DHT22;34330;52.08032700;5.40923460;2022-11-20T11:03:22;4.00;83.90
6536;DHT22;34330;52.08032700;5.40923460;2022-11-20T11:05:54;4.10;84.00
6536;DHT22;34330;52.08032700;5.40923460;2022-11-20T11:08:27;4.20;84.00
6536;DHT22;34330;52.08032700;5.40923460;2022-11-20T11:11:15;4.20;84.10
6536;DHT22;34330;52.08032700;5.40923460;2022-11-20T11:13:45;4.40;84.40
6536;DHT22;34330;52.08032700;5.40923460;2022-11-20T11:16:21;4.40;84.40
6536;DHT22;34330;52.08032700;5.40923460;2022-11-20T11:21:24;4.50;84.40
6536;DHT22;34330;52.08032700;5.40923460;2022-11-20T11:24:00;4.60;84.40
6536;DHT22;34330;52.08032700;5.40923460;2022-11-20T11:26:56;4.60;84.30
6536;DHT22;34330;52.08032700;5.40923460;2022-11-20T11:29:25;4.60;84.20
6536;DHT22;34330;52.08032700;5.40923460;2022-11-20T11:32:13;4.80;84.40
6536;DHT22;34330;52.08032700;5.40923460;2022-11-20T11:34:41;4.80;84.20
6536;DHT22;34330;52.08032700;5.40923460;2022-11-20T11:37:16;4.90;84.50
6536;DHT22;34330;52.08032700;5.40923460;2022-11-20T11:39:50;4.80;85.00
6536;DHT22;34330;52.08032700;5.40923460;2022-11-20T11:42:42;4.90;84.30
6536;DHT22;34330;52.08032700;5.40923460;2022-11-20T11:45:14;4.90;84.40
6536;DHT22;34330;52.08032700;5.40923460;2022-11-20T11:47:45;4.90;84.50
6536;DHT22;34330;52.08032700;5.40923460;2022-11-20T11:50:17;5.10;84.70
6536;DHT22;34330;52.08032700;5.40923460;2022-11-20T11:52:50;5.10;84.70
6536;DHT22;34330;52.08032700;5.40923460;2022-11-20T11:55:27;5.00;84.80
6536;DHT22;34330;52.08032700;5.40923460;2022-11-20T11:58:09;5.00;85.00
6536;DHT22;34330;52.08032700;5.40923460;2022-11-20T12:00:45;5.10;85.20
6536;DHT22;34330;52.08032700;5.40923460;2022-11-20T12:03:19;5.10;85.20
6536;DHT22;34330;52.08032700;5.40923460;2022-11-20T12:05:57;5.10;85.10
6536;DHT22;34330;52.08032700;5.40923460;2022-11-20T12:08:29;5.10;85.30
6536;DHT22;34330;52.08032700;5.40923460;2022-11-20T12:11:04;5.10;85.50
6536;DHT22;34330;52.08032700;5.40923460;2022-11-20T12:13:46;5.30;85.70
6536;DHT22;34330;52.08032700;5.40923460;2022-11-20T12:16:18;5.30;85.70
6536;DHT22;34330;52.08032700;5.40923460;2022-11-20T12:18:49;5.30;85.60
6536;DHT22;34330;52.08032700;5.40923460;2022-11-20T12:21:19;5.40;85.70
6536;DHT22;34330;52.08032700;5.40923460;2022-11-20T12:24:00;5.40;85.70
6536;DHT22;34330;52.08032700;5.40923460;2022-11-20T12:26:44;5.40;85.50
6536;DHT22;34330;52.08032700;5.40923460;2022-11-20T12:29:21;5.40;85.20
6536;DHT22;34330;52.08032700;5.40923460;2022-11-20T12:32:00;5.40;85.20
6536;DHT22;34330;52.08032700;5.40923460;2022-11-20T12:34:43;5.50;85.30
6536;DHT22;34330;52.08032700;5.40923460;2022-11-20T12:37:24;5.40;85.30
6536;DHT22;34330;52.08032700;5.40923460;2022-11-20T12:40:01;5.40;85.30
6536;DHT22;34330;52.08032700;5.40923460;2022-11-20T12:42:45;5.60;85.50
6536;DHT22;34330;52.08032700;5.40923460;2022-11-20T12:46:05;5.50;85.30
6536;DHT22;34330;52.08032700;5.40923460;2022-11-20T12:51:47;5.50;85.50
6536;DHT22;34330;52.08032700;5.40923460;2022-11-20T12:54:42;5.50;85.50
6536;DHT22;34330;52.08032700;5.40923460;2022-11-20T12:57:21;5.50;85.60
6536;DHT22;34330;52.08032700;5.40923460;2022-11-20T13:00:07;5.50;85.70
6536;DHT22;34330;52.08032700;5.40923460;2022-11-20T13:05:34;5.50;85.80
6536;DHT22;34330;52.08032700;5.40923460;2022-11-20T13:08:11;5.60;86.10
6536;DHT22;34330;52.08032700;5.40923460;2022-11-20T13:10:47;5.40;86.10
6536;DHT22;34330;52.08032700;5.40923460;2022-11-20T13:13:23;5.50;86.50
6536;DHT22;34330;52.08032700;5.40923460;2022-11-20T13:15:56;5.60;86.70
6536;DHT22;34330;52.08032700;5.40923460;2022-11-20T13:18:35;5.60;86.40
6536;DHT22;34330;52.08032700;5.40923460;2022-11-20T13:21:14;5.70;86.20
6536;DHT22;34330;52.08032700;5.40923460;2022-11-20T13:23:42;5.60;86.10
6536;DHT22;34330;52.08032700;5.40923460;2022-11-20T13:26:17;5.60;86.30
6536;DHT22;34330;52.08032700;5.40923460;2022-11-20T13:28:46;5.60;86.50
6536;DHT22;34330;52.08032700;5.40923460;2022-11-20T13:31:31;5.70;86.70
6536;DHT22;34330;52.08032700;5.40923460;2022-11-20T13:34:04;5.50;86.70
6536;DHT22;34330;52.08032700;5.40923460;2022-11-20T13:36:33;5.60;87.00
6536;DHT22;34330;52.08032700;5.40923460;2022-11-20T13:39:03;5.60;87.00
6536;DHT22;34330;52.08032700;5.40923460;2022-11-20T13:41:32;5.70;87.10
6536;DHT22;34330;52.08032700;5.40923460;2022-11-20T13:44:13;5.70;86.90
6536;DHT22;34330;52.08032700;5.40923460;2022-11-20T13:46:45;5.60;86.70
6536;DHT22;34330;52.08032700;5.40923460;2022-11-20T13:49:20;5.70;86.90
6536;DHT22;34330;52.08032700;5.40923460;2022-11-20T13:51:51;5.60;87.00
6536;DHT22;34330;52.08032700;5.40923460;2022-11-20T13:54:54;5.60;87.10
6536;DHT22;34330;52.08032700;5.40923460;2022-11-20T13:57:40;5.70;87.00
6536;DHT22;34330;52.08032700;5.40923460;2022-11-20T14:00:16;5.70;87.10
6536;DHT22;34330;52.08032700;5.40923460;2022-11-20T14:02:52;5.70;87.30
6536;DHT22;34330;52.08032700;5.40923460;2022-11-20T14:05:32;5.70;87.50
6536;DHT22;34330;52.08032700;5.40923460;2022-11-20T14:08:03;5.30;87.10
6536;DHT22;34330;52.08032700;5.40923460;2022-11-20T14:10:32;5.70;87.30
6536;DHT22;34330;52.08032700;5.40923460;2022-11-20T14:13:10;5.70;87.50
6536;DHT22;34330;52.08032700;5.40923460;2022-11-20T14:15:38;5.70;87.60
6536;DHT22;34330;52.08032700;5.40923460;2022-11-20T14:18:12;5.80;87.50
6536;DHT22;34330;52.08032700;5.40923460;2022-11-20T14:20:42;5.80;87.70
6536;DHT22;34330;52.08032700;5.40923460;2022-11-20T14:23:11;5.80;87.60
6536;DHT22;34330;52.08032700;5.40923460;2022-11-20T14:25:42;5.80;87.50
6536;DHT22;34330;52.08032700;5.40923460;2022-11-20T14:28:17;5.80;87.70
6536;DHT22;34330;52.08032700;5.40923460;2022-11-20T14:33:20;5.70;87.90
6536;DHT22;34330;52.08032700;5.40923460;2022-11-20T14:35:56;5.80;88.00
6536;DHT22;34330;52.08032700;5.40923460;2022-11-20T14:38:28;5.80;88.00
6536;DHT22;34330;52.08032700;5.40923460;2022-11-20T14:41:06;5.80;88.00
6536;DHT22;34330;52.08032700;5.40923460;2022-11-20T14:43:34;5.80;88.10
6536;DHT22;34330;52.08032700;5.40923460;2022-11-20T14:46:06;5.80;88.30
6536;DHT22;34330;52.08032700;5.40923460;2022-11-20T14:48:38;5.90;88.40
6536;DHT22;34330;52.08032700;5.40923460;2022-11-20T14:51:10;5.80;88.20
6536;DHT22;34330;52.08032700;5.40923460;2022-11-20T14:53:38;5.90;88.30
6536;DHT22;34330;52.08032700;5.40923460;2022-11-20T14:56:07;5.80;88.30
6536;DHT22;34330;52.08032700;5.40923460;2022-11-20T14:58:37;5.80;88.20
6536;DHT22;34330;52.08032700;5.40923460;2022-11-20T15:01:11;5.80;88.20
6536;DHT22;34330;52.08032700;5.40923460;2022-11-20T15:03:40;5.80;88.20
6536;DHT22;34330;52.08032700;5.40923460;2022-11-20T15:06:26;5.80;88.30
6536;DHT22;34330;52.08032700;5.40923460;2022-11-20T15:11:28;5.80;88.60
6536;DHT22;34330;52.08032700;5.40923460;2022-11-20T15:13:58;5.80;88.50
6536;DHT22;34330;52.08032700;5.40923460;2022-11-20T15:16:36;5.90;88.50
6536;DHT22;34330;52.08032700;5.40923460;2022-11-20T15:19:12;5.80;88.60
6536;DHT22;34330;52.08032700;5.40923460;2022-11-20T15:21:45;5.90;88.80
6536;DHT22;34330;52.08032700;5.40923460;2022-11-20T15:24:13;5.80;88.90
6536;DHT22;34330;52.08032700;5.40923460;2022-11-20T15:29:11;5.80;88.90